createdAt,value
2023-03-06T00:01:38.051Z,3.15
2023-03-06T00:04:08.993Z,3.06
2023-03-06T00:06:38.102Z,3.10
2023-03-06T00:09:07.118Z,3.05
2023-03-06T00:11:36.070Z,3.06
2023-03-06T00:14:05.414Z,3.05
2023-03-06T00:16:34.496Z,3.05
2023-03-06T00:19:03.603Z,3.04
2023-03-06T00:21:34.037Z,3.01
2023-03-06T00:24:03.109Z,3.01
2023-03-06T00:26:36.020Z,2.98
2023-03-06T00:29:05.133Z,3.02
2023-03-06T00:31:34.692Z,2.98
2023-03-06T00:34:04.046Z,2.95
2023-03-06T00:36:34.509Z,2.95
2023-03-06T00:39:04.274Z,2.94
2023-03-06T00:41:33.340Z,2.92
2023-03-06T00:44:02.416Z,2.83
2023-03-06T00:46:31.428Z,2.74
2023-03-06T00:49:00.462Z,2.73
2023-03-06T00:51:29.550Z,2.74
2023-03-06T00:54:00.261Z,2.73
2023-03-06T00:56:30.042Z,2.68
2023-03-06T00:58:59.345Z,2.72
2023-03-06T01:01:29.360Z,2.76
2023-03-06T01:03:58.375Z,2.73
2023-03-06T01:06:29.998Z,2.75
2023-03-06T01:09:01.953Z,2.77
2023-03-06T01:11:31.063Z,2.79
2023-03-06T01:14:00.111Z,2.78
2023-03-06T01:16:29.247Z,2.77
2023-03-06T01:18:58.476Z,2.76
2023-03-06T01:21:27.800Z,2.73
2023-03-06T01:23:57.208Z,2.79
2023-03-06T01:26:27.726Z,2.79
2023-03-06T01:28:57.461Z,2.78
2023-03-06T01:31:26.953Z,2.80
2023-03-06T01:33:56.070Z,2.81
2023-03-06T01:36:25.554Z,2.82
2023-03-06T01:38:54.605Z,2.85
2023-03-06T01:41:25.811Z,2.85
2023-03-06T01:43:56.519Z,2.87
2023-03-06T01:46:42.150Z,2.83
2023-03-06T01:49:19.814Z,2.83
2023-03-06T01:51:53.957Z,2.93
2023-03-06T01:54:27.915Z,2.92
2023-03-06T01:57:03.373Z,2.89
2023-03-06T01:59:36.699Z,2.96
2023-03-06T02:02:11.168Z,2.85
2023-03-06T02:04:42.518Z,2.78
2023-03-06T02:07:12.346Z,2.78
2023-03-06T02:09:41.450Z,2.75
2023-03-06T02:12:14.201Z,2.77
2023-03-06T02:14:45.691Z,2.75
2023-03-06T02:17:19.264Z,2.74
2023-03-06T02:19:59.523Z,2.67
2023-03-06T02:22:37.589Z,2.63
2023-03-06T02:25:15.248Z,2.60
2023-03-06T02:27:45.904Z,2.58
2023-03-06T02:30:17.736Z,2.53
2023-03-06T02:32:46.932Z,2.52
2023-03-06T02:35:21.190Z,2.47
2023-03-06T02:37:51.091Z,2.46
2023-03-06T02:40:24.137Z,2.45
2023-03-06T02:42:59.472Z,2.43
2023-03-06T02:45:36.784Z,2.39
2023-03-06T02:48:06.480Z,2.34
2023-03-06T02:50:35.647Z,2.29
2023-03-06T02:53:07.137Z,2.21
2023-03-06T02:55:37.329Z,2.23
2023-03-06T02:58:08.134Z,2.26
2023-03-06T03:00:39.457Z,2.26
2023-03-06T03:03:11.364Z,2.27
2023-03-06T03:05:40.434Z,2.30
2023-03-06T03:08:16.539Z,2.28
2023-03-06T03:10:45.660Z,2.23
2023-03-06T03:13:19.599Z,2.18
2023-03-06T03:16:00.229Z,2.06
2023-03-06T03:18:30.050Z,2.00
2023-03-06T03:20:59.741Z,2.08
2023-03-06T03:23:29.110Z,2.16
2023-03-06T03:26:08.518Z,2.21
2023-03-06T03:28:41.082Z,2.24
2023-03-06T03:31:11.604Z,2.27
2023-03-06T03:33:41.148Z,2.34
2023-03-06T03:36:11.471Z,2.39
2023-03-06T03:38:44.323Z,2.42
2023-03-06T03:41:14.024Z,2.39
2023-03-06T03:43:45.381Z,2.35
2023-03-06T03:46:14.436Z,2.31
2023-03-06T03:48:43.646Z,2.31
2023-03-06T03:51:16.576Z,2.29
2023-03-06T03:53:50.127Z,2.24
2023-03-06T03:56:22.806Z,2.37
2023-03-06T03:59:01.089Z,2.12
2023-03-06T04:01:37.696Z,2.12
2023-03-06T04:04:08.324Z,2.20
2023-03-06T04:06:37.779Z,2.18
2023-03-06T04:09:09.184Z,2.13
2023-03-06T04:11:39.757Z,2.15
2023-03-06T04:14:10.254Z,2.20
2023-03-06T04:16:39.602Z,2.16
2023-03-06T04:19:09.290Z,2.22
2023-03-06T04:21:39.254Z,2.16
2023-03-06T04:24:10.368Z,2.13
2023-03-06T04:26:39.551Z,2.17
2023-03-06T04:29:10.141Z,2.13
2023-03-06T04:31:39.482Z,2.08
2023-03-06T04:34:09.436Z,2.06
2023-03-06T04:36:45.129Z,2.08
2023-03-06T04:39:15.805Z,2.13
2023-03-06T04:41:44.960Z,2.11
2023-03-06T04:44:17.501Z,2.15
2023-03-06T04:46:46.596Z,2.16
2023-03-06T04:49:15.684Z,2.20
2023-03-06T04:51:47.884Z,2.19
2023-03-06T04:54:18.928Z,2.21
2023-03-06T04:56:48.857Z,2.24
2023-03-06T04:59:19.336Z,2.11
2023-03-06T05:01:48.549Z,2.12
2023-03-06T05:04:17.584Z,2.06
2023-03-06T05:06:46.711Z,2.09
2023-03-06T05:09:15.916Z,2.14
2023-03-06T05:11:44.951Z,2.14
2023-03-06T05:14:13.984Z,2.09
2023-03-06T05:16:44.617Z,2.11
2023-03-06T05:19:13.745Z,2.18
2023-03-06T05:21:42.852Z,2.16
2023-03-06T05:24:12.199Z,2.11
2023-03-06T05:26:43.407Z,2.07
2023-03-06T05:29:12.494Z,1.99
2023-03-06T05:31:41.462Z,1.94
2023-03-06T05:34:14.934Z,1.95
2023-03-06T05:36:44.498Z,1.90
2023-03-06T05:39:13.689Z,1.92
2023-03-06T05:41:42.784Z,1.96
2023-03-06T05:44:11.846Z,1.98
2023-03-06T05:46:40.822Z,2.03
2023-03-06T05:49:09.935Z,2.01
2023-03-06T05:51:40.293Z,2.00
2023-03-06T05:54:09.336Z,2.02
2023-03-06T05:56:38.298Z,2.08
2023-03-06T05:59:07.352Z,2.18
2023-03-06T06:01:36.639Z,2.28
2023-03-06T06:04:05.954Z,2.33
2023-03-06T06:06:35.068Z,2.46
2023-03-06T06:09:06.067Z,2.51
2023-03-06T06:11:35.123Z,2.61
2023-03-06T06:14:04.116Z,2.72
2023-03-06T06:16:33.119Z,2.74
2023-03-06T06:19:02.158Z,2.76
2023-03-06T06:21:31.179Z,2.86
2023-03-06T06:24:00.184Z,2.94
2023-03-06T06:26:31.876Z,3.02
2023-03-06T06:29:00.895Z,3.04
2023-03-06T06:31:29.971Z,3.12
2023-03-06T06:33:59.038Z,3.22
2023-03-06T06:36:28.031Z,3.30
2023-03-06T06:38:57.326Z,3.41
2023-03-06T06:41:46.205Z,3.51
2023-03-06T06:44:19.546Z,3.51
2023-03-06T06:49:44.196Z,3.65
2023-03-06T06:52:16.165Z,3.79
2023-03-06T06:54:45.537Z,3.82
2023-03-06T06:57:15.460Z,3.91
2023-03-06T06:59:46.033Z,4.01
2023-03-06T07:02:16.805Z,4.08
2023-03-06T07:05:02.598Z,4.19
2023-03-06T07:07:34.153Z,4.27
2023-03-06T07:10:05.580Z,4.35
2023-03-06T07:12:36.669Z,4.57
2023-03-06T07:15:09.672Z,4.78
2023-03-06T07:17:40.162Z,4.82
2023-03-06T07:20:11.300Z,4.89
2023-03-06T07:22:50.357Z,4.91
2023-03-06T07:25:23.343Z,4.96
2023-03-06T07:27:54.488Z,4.99
2023-03-06T07:30:25.651Z,4.97
2023-03-06T07:32:56.481Z,5.00
2023-03-06T07:35:26.464Z,5.05
2023-03-06T07:37:56.024Z,5.05
2023-03-06T07:40:26.016Z,5.13
2023-03-06T07:43:06.058Z,5.12
2023-03-06T07:45:47.620Z,5.19
2023-03-06T07:48:19.628Z,5.27
2023-03-06T07:50:57.793Z,5.37
2023-03-06T07:53:26.980Z,5.46
2023-03-06T07:55:56.544Z,5.60
2023-03-06T07:58:26.663Z,5.69
2023-03-06T08:00:57.086Z,5.89
2023-03-06T08:03:26.248Z,6.18
2023-03-06T08:05:55.321Z,6.55
2023-03-06T08:08:24.322Z,6.66
2023-03-06T08:10:53.332Z,6.68
2023-03-06T08:13:22.395Z,6.82
2023-03-06T08:15:51.381Z,6.95
2023-03-06T08:18:21.745Z,7.19
2023-03-06T08:20:50.768Z,7.40
2023-03-06T08:23:19.779Z,7.62
2023-03-06T08:25:57.767Z,7.89
2023-03-06T08:28:28.510Z,8.02
2023-03-06T08:31:08.666Z,8.10
2023-03-06T08:33:39.482Z,8.19
2023-03-06T08:36:09.212Z,8.16
2023-03-06T08:38:38.509Z,8.17
2023-03-06T08:41:07.710Z,8.16
2023-03-06T08:43:36.839Z,8.23
2023-03-06T08:46:06.342Z,8.25
2023-03-06T08:48:35.472Z,8.46
2023-03-06T08:51:06.842Z,8.54
2023-03-06T08:53:43.250Z,8.51
2023-03-06T08:56:22.292Z,8.80
2023-03-06T08:58:54.773Z,9.08
2023-03-06T09:01:27.504Z,9.38
2023-03-06T09:03:58.810Z,9.62
2023-03-06T09:06:33.024Z,9.72
2023-03-06T09:09:05.742Z,9.95
2023-03-06T09:11:34.905Z,9.96
2023-03-06T09:14:05.035Z,9.91
2023-03-06T09:16:34.354Z,9.89
2023-03-06T09:19:03.484Z,9.94
2023-03-06T09:21:34.132Z,10.05
2023-03-06T09:24:04.043Z,9.94
2023-03-06T09:26:45.166Z,10.16
2023-03-06T09:29:16.397Z,10.23
2023-03-06T09:31:45.971Z,10.24
2023-03-06T09:34:15.017Z,10.33
2023-03-06T09:36:56.436Z,10.31
2023-03-06T09:39:27.455Z,10.40
2023-03-06T09:41:58.866Z,10.46
2023-03-06T09:44:30.764Z,10.77
2023-03-06T09:47:23.203Z,10.95
2023-03-06T09:50:11.201Z,11.08
2023-03-06T09:52:53.945Z,11.14
2023-03-06T09:55:27.178Z,11.21
2023-03-06T09:58:07.163Z,11.18
2023-03-06T10:00:41.884Z,11.30
2023-03-06T10:03:23.332Z,11.24
2023-03-06T10:05:58.655Z,11.31
2023-03-06T10:08:39.410Z,11.30
2023-03-06T10:11:12.335Z,11.36
2023-03-06T10:13:44.693Z,11.55
2023-03-06T10:16:29.235Z,11.31
2023-03-06T10:19:04.552Z,11.39
2023-03-06T10:21:57.267Z,11.45
2023-03-06T10:24:45.960Z,11.77
2023-03-06T10:27:27.826Z,11.79
2023-03-06T10:30:04.637Z,11.78
2023-03-06T10:32:49.471Z,11.96
2023-03-06T10:35:23.038Z,11.96
2023-03-06T10:37:52.177Z,12.05
2023-03-06T10:40:29.146Z,11.96
2023-03-06T10:43:10.812Z,11.99
2023-03-06T10:45:57.908Z,11.99
2023-03-06T10:48:29.911Z,11.62
2023-03-06T10:51:19.115Z,11.52
2023-03-06T10:53:55.569Z,11.74
2023-03-06T10:56:31.966Z,11.76
2023-03-06T10:59:10.376Z,12.03
2023-03-06T11:01:39.917Z,12.04
2023-03-06T11:04:23.792Z,12.14
2023-03-06T11:07:09.037Z,12.22
2023-03-06T11:09:38.089Z,11.87
2023-03-06T11:12:33.762Z,11.52
2023-03-06T11:15:27.808Z,11.34
2023-03-06T11:18:01.924Z,11.38
2023-03-06T11:20:49.923Z,11.39
2023-03-06T11:23:23.210Z,11.92
2023-03-06T11:25:57.683Z,12.31
2023-03-06T11:28:32.800Z,12.47
2023-03-06T11:31:08.261Z,12.69
2023-03-06T11:33:45.396Z,12.60
2023-03-06T11:36:22.207Z,12.86
2023-03-06T11:38:53.270Z,12.73
2023-03-06T11:41:34.871Z,12.95
2023-03-06T11:44:21.094Z,12.71
2023-03-06T11:47:02.641Z,11.78
2023-03-06T11:49:40.720Z,11.46
2023-03-06T11:52:22.240Z,11.60
2023-03-06T11:54:56.496Z,11.80
2023-03-06T11:57:35.459Z,11.82
2023-03-06T12:00:23.900Z,11.87
2023-03-06T12:03:26.168Z,11.95
2023-03-06T12:06:03.622Z,11.98
2023-03-06T12:08:51.122Z,12.10
2023-03-06T12:11:24.833Z,12.19
2023-03-06T12:14:25.776Z,12.03
2023-03-06T12:17:11.705Z,11.57
2023-03-06T12:20:16.934Z,10.92
2023-03-06T12:22:57.988Z,10.74
2023-03-06T12:25:39.516Z,10.99
2023-03-06T12:28:41.541Z,10.97
2023-03-06T12:31:44.852Z,10.86
2023-03-06T12:34:33.746Z,10.91
2023-03-06T12:37:17.872Z,11.01
2023-03-06T12:40:10.085Z,11.03
2023-03-06T12:43:05.062Z,11.04
2023-03-06T12:45:37.099Z,10.91
2023-03-06T12:48:16.083Z,10.89
2023-03-06T12:50:47.216Z,10.80
2023-03-06T12:53:24.495Z,10.57
2023-03-06T12:55:55.208Z,10.53
2023-03-06T12:58:52.381Z,10.48
2023-03-06T13:01:45.108Z,10.33
2023-03-06T13:05:05.094Z,10.33
2023-03-06T13:07:53.760Z,10.19
2023-03-06T13:10:29.509Z,9.98
2023-03-06T13:13:01.622Z,10.05
2023-03-06T13:15:42.749Z,10.09
2023-03-06T13:18:51.648Z,9.92
2023-03-06T13:22:16.591Z,9.90
2023-03-06T13:24:48.300Z,9.89
2023-03-06T13:28:01.168Z,9.87
2023-03-06T13:30:48.171Z,9.94
2023-03-06T13:33:57.504Z,9.94
2023-03-06T13:36:31.045Z,9.95
2023-03-06T13:39:08.707Z,9.92
2023-03-06T13:42:08.240Z,9.94
2023-03-06T13:44:51.000Z,9.92
2023-03-06T13:48:02.813Z,9.94
2023-03-06T13:50:37.743Z,9.86
2023-03-06T13:54:09.288Z,9.74
2023-03-06T13:57:24.447Z,9.63
2023-03-06T14:00:38.274Z,9.52
2023-03-06T14:04:15.547Z,9.57
2023-03-06T14:07:24.733Z,9.64
2023-03-06T14:10:12.187Z,9.74
2023-03-06T14:12:44.855Z,9.87
2023-03-06T14:15:20.103Z,9.90
2023-03-06T14:17:57.637Z,9.90
2023-03-06T14:20:34.351Z,9.83
2023-03-06T14:23:23.187Z,9.70
2023-03-06T14:26:00.106Z,9.56
2023-03-06T14:28:31.008Z,9.49
2023-03-06T14:31:04.701Z,9.40
2023-03-06T14:33:43.027Z,9.28
2023-03-06T14:36:17.011Z,9.19
2023-03-06T14:38:49.482Z,9.10
2023-03-06T14:41:27.639Z,9.07
2023-03-06T14:44:10.814Z,9.03
2023-03-06T14:46:41.343Z,9.00
2023-03-06T14:49:11.285Z,8.95
2023-03-06T14:51:44.442Z,8.94
2023-03-06T14:54:19.661Z,8.88
2023-03-06T14:56:53.102Z,8.83
2023-03-06T14:59:28.506Z,8.76
2023-03-06T15:02:03.630Z,8.71
2023-03-06T15:04:40.134Z,8.67
2023-03-06T15:07:14.229Z,8.64
2023-03-06T15:09:47.892Z,8.64
2023-03-06T15:12:39.816Z,8.63
2023-03-06T15:15:32.594Z,8.58
2023-03-06T15:18:03.314Z,8.48
2023-03-06T15:20:47.158Z,8.42
2023-03-06T15:23:27.466Z,8.39
2023-03-06T15:25:59.717Z,8.34
2023-03-06T15:28:37.160Z,8.26
2023-03-06T15:31:21.214Z,8.22
2023-03-06T15:34:25.593Z,8.20
2023-03-06T15:36:57.172Z,8.25
2023-03-06T15:39:37.512Z,8.28
2023-03-06T15:42:20.228Z,8.40
2023-03-06T15:44:53.079Z,8.48
2023-03-06T15:47:23.682Z,8.58
2023-03-06T15:49:54.175Z,8.64
2023-03-06T15:52:24.783Z,8.72
2023-03-06T15:54:54.100Z,8.75
2023-03-06T15:57:29.156Z,8.77
2023-03-06T16:00:00.123Z,8.69
2023-03-06T16:02:29.272Z,8.61
2023-03-06T16:05:02.480Z,8.47
2023-03-06T16:07:31.520Z,8.28
2023-03-06T16:10:03.576Z,8.11
2023-03-06T16:12:32.736Z,7.94
2023-03-06T16:15:04.263Z,7.83
2023-03-06T16:17:33.351Z,7.64
2023-03-06T16:20:03.922Z,7.44
2023-03-06T16:22:35.536Z,7.32
2023-03-06T16:25:05.248Z,7.20
2023-03-06T16:27:34.382Z,7.00
2023-03-06T16:30:03.614Z,6.93
2023-03-06T16:32:32.891Z,7.00
2023-03-06T16:35:03.408Z,7.01
2023-03-06T16:37:32.511Z,6.90
2023-03-06T16:40:01.528Z,6.85
2023-03-06T16:42:30.592Z,6.81
2023-03-06T16:44:59.706Z,6.75
2023-03-06T16:47:28.764Z,6.83
2023-03-06T16:50:01.964Z,6.73
2023-03-06T16:52:32.806Z,6.67
2023-03-06T16:55:02.050Z,6.67
2023-03-06T16:57:35.865Z,6.66
2023-03-06T17:00:08.379Z,6.59
2023-03-06T17:02:38.637Z,6.54
2023-03-06T17:05:12.297Z,6.46
2023-03-06T17:07:48.417Z,6.42
2023-03-06T17:10:22.922Z,6.32
2023-03-06T17:12:52.422Z,6.27
2023-03-06T17:15:22.124Z,6.31
2023-03-06T17:17:51.762Z,6.32
2023-03-06T17:20:23.747Z,6.28
2023-03-06T17:22:54.324Z,6.26
2023-03-06T17:25:25.802Z,6.30
2023-03-06T17:27:54.978Z,6.27
2023-03-06T17:30:24.020Z,6.29
2023-03-06T17:32:53.712Z,6.26
2023-03-06T17:35:22.915Z,6.13
2023-03-06T17:37:54.252Z,6.13
2023-03-06T17:40:25.757Z,6.16
2023-03-06T17:42:54.906Z,6.13
2023-03-06T17:45:23.941Z,6.11
2023-03-06T17:47:55.472Z,6.04
2023-03-06T17:50:24.686Z,6.03
2023-03-06T17:52:55.290Z,6.05
2023-03-06T17:55:24.279Z,6.09
2023-03-06T17:57:53.547Z,6.08
2023-03-06T18:00:24.095Z,6.04
2023-03-06T18:02:53.299Z,6.00
2023-03-06T18:05:22.336Z,5.96
2023-03-06T18:07:51.413Z,5.91
2023-03-06T18:10:22.326Z,5.90
2023-03-06T18:12:52.994Z,5.92
2023-03-06T18:15:22.302Z,5.89
2023-03-06T18:17:51.647Z,5.83
2023-03-06T18:20:20.979Z,5.80
2023-03-06T18:22:50.089Z,5.73
2023-03-06T18:25:19.241Z,5.62
2023-03-06T18:27:49.671Z,5.59
2023-03-06T18:30:19.587Z,5.58
2023-03-06T18:32:50.993Z,5.59
2023-03-06T18:35:23.171Z,5.49
2023-03-06T18:37:53.162Z,5.45
2023-03-06T18:40:24.796Z,5.54
2023-03-06T18:42:55.683Z,5.61
2023-03-06T18:45:25.634Z,5.56
2023-03-06T18:47:56.188Z,5.60
2023-03-06T18:50:25.273Z,5.62
2023-03-06T18:52:54.332Z,5.66
2023-03-06T18:55:23.558Z,5.58
2023-03-06T18:57:54.017Z,5.53
2023-03-06T19:00:24.241Z,5.48
2023-03-06T19:02:57.099Z,5.38
2023-03-06T19:05:26.272Z,5.36
2023-03-06T19:07:56.341Z,5.30
2023-03-06T19:10:27.423Z,5.32
2023-03-06T19:13:00.874Z,5.37
2023-03-06T19:15:30.521Z,5.31
2023-03-06T19:18:00.283Z,5.29
2023-03-06T19:20:29.361Z,5.37
2023-03-06T19:22:58.435Z,5.38
2023-03-06T19:25:28.720Z,5.38
2023-03-06T19:28:00.053Z,5.39
2023-03-06T19:30:34.388Z,5.40
2023-03-06T19:33:05.987Z,5.37
2023-03-06T19:35:37.904Z,5.35
2023-03-06T19:38:14.231Z,5.32
2023-03-06T19:40:50.707Z,5.23
2023-03-06T19:43:30.820Z,5.16
2023-03-06T19:46:07.005Z,5.08
2023-03-06T19:48:36.761Z,5.04
2023-03-06T19:51:07.076Z,5.10
2023-03-06T19:53:36.854Z,5.07
2023-03-06T19:56:08.639Z,5.13
2023-03-06T19:58:40.720Z,5.17
2023-03-06T20:01:13.705Z,5.23
2023-03-06T20:03:43.160Z,5.18
2023-03-06T20:06:16.407Z,5.17
2023-03-06T20:08:46.988Z,5.26
2023-03-06T20:11:17.831Z,5.24
2023-03-06T20:13:48.831Z,5.33
2023-03-06T20:16:19.660Z,5.22
2023-03-06T20:18:48.982Z,5.26
2023-03-06T20:21:18.253Z,5.18
2023-03-06T20:23:47.335Z,5.07
2023-03-06T20:26:17.096Z,5.00
2023-03-06T20:28:46.328Z,5.03
2023-03-06T20:31:21.973Z,5.01
2023-03-06T20:33:53.939Z,4.96
2023-03-06T20:36:29.049Z,4.90
2023-03-06T20:39:03.041Z,4.99
2023-03-06T20:41:35.800Z,4.98
2023-03-06T20:44:08.181Z,4.95
2023-03-06T20:46:38.937Z,4.89
2023-03-06T20:49:09.895Z,4.84
2023-03-06T20:51:45.485Z,4.88
2023-03-06T20:54:17.526Z,4.89
2023-03-06T20:56:50.204Z,4.83
2023-03-06T20:59:19.814Z,4.80
2023-03-06T21:01:50.420Z,4.85
2023-03-06T21:04:20.455Z,4.85
2023-03-06T21:06:49.484Z,4.86
2023-03-06T21:09:18.895Z,4.85
2023-03-06T21:11:48.390Z,4.87
2023-03-06T21:14:20.199Z,4.85
2023-03-06T21:16:50.595Z,4.90
2023-03-06T21:19:29.185Z,4.83
2023-03-06T21:21:58.252Z,4.96
2023-03-06T21:24:27.352Z,4.93
2023-03-06T21:26:56.420Z,4.91
2023-03-06T21:29:25.571Z,4.81
2023-03-06T21:31:56.087Z,4.75
2023-03-06T21:34:26.728Z,4.75
2023-03-06T21:36:56.027Z,4.76
2023-03-06T21:39:25.729Z,4.72
2023-03-06T21:41:57.270Z,4.65
2023-03-06T21:44:26.313Z,4.77
2023-03-06T21:46:57.964Z,4.77
2023-03-06T21:49:29.524Z,4.79
2023-03-06T21:51:58.702Z,4.73
2023-03-06T21:54:29.315Z,4.71
2023-03-06T21:56:58.481Z,4.74
2023-03-06T21:59:30.189Z,4.70
2023-03-06T22:02:00.718Z,4.77
2023-03-06T22:04:29.753Z,4.76
2023-03-06T22:06:58.822Z,4.71
2023-03-06T22:09:27.836Z,4.65
2023-03-06T22:11:57.382Z,4.66
2023-03-06T22:14:30.097Z,4.73
2023-03-06T22:17:00.560Z,4.76
2023-03-06T22:19:29.882Z,4.75
2023-03-06T22:21:58.978Z,4.71
2023-03-06T22:24:28.513Z,4.66
2023-03-06T22:26:59.318Z,4.64
2023-03-06T22:29:28.394Z,4.63
2023-03-06T22:31:57.486Z,4.65
2023-03-06T22:34:28.325Z,4.68
2023-03-06T22:36:57.440Z,4.71
2023-03-06T22:39:26.515Z,4.72
2023-03-06T22:41:56.485Z,4.66
2023-03-06T22:44:42.401Z,4.67
2023-03-06T22:47:11.453Z,4.70
2023-03-06T22:49:42.047Z,4.70
2023-03-06T22:52:15.147Z,4.69
2023-03-06T22:54:44.304Z,4.67
2023-03-06T22:57:13.550Z,4.63
2023-03-06T22:59:45.849Z,4.57
2023-03-06T23:02:17.900Z,4.52
2023-03-06T23:04:52.255Z,4.47
2023-03-06T23:07:21.905Z,4.34
2023-03-06T23:09:52.308Z,4.15
2023-03-06T23:12:44.108Z,3.94
2023-03-06T23:15:31.850Z,3.83
2023-03-06T23:18:22.547Z,3.82
2023-03-06T23:21:14.240Z,3.72
2023-03-06T23:24:05.276Z,3.57
2023-03-06T23:26:35.427Z,3.48
2023-03-06T23:29:07.802Z,3.43
2023-03-06T23:31:37.430Z,3.30
2023-03-06T23:34:06.645Z,3.27
2023-03-06T23:36:39.095Z,3.41
2023-03-06T23:39:08.157Z,3.66
2023-03-06T23:41:37.885Z,3.69
2023-03-06T23:44:07.311Z,3.50
2023-03-06T23:46:36.377Z,3.53
2023-03-06T23:49:06.280Z,3.46
2023-03-06T23:51:36.779Z,3.60
2023-03-06T23:54:06.950Z,3.60
2023-03-06T23:56:36.084Z,3.61
2023-03-06T23:59:05.117Z,3.65
